LIPE/BLQ METAR and TAF weather

Enter ICAO airport designator
Station Type Date Time Source
LIPE METAR 2019/04/25 11:50 UTC NOAA

LIPE 251150Z 09011KT 8000 FEW025 20/14 Q1018


Station Type Date Time Source
LIPE Decoded METAR 2019/04/25 11:50 UTC NOAA

Bologna / Borgo Panigale, Italy (LIPE) 44-32N 011-18E 49M
Apr 25, 2019 - 07:50 AM EDT / 2019.04.25 1150 UTC
Wind: from the E (090 degrees) at 13 MPH (11 KT):0
Visibility: 4 mile(s):0
Sky conditions: mostly clear
Temperature: 68 F (20 C)
Dew Point: 57 F (14 C)
Relative Humidity: 68%
Pressure (altimeter): 30.06 in. Hg (1018 hPa)
ob: LIPE 251150Z 09011KT 8000 FEW025 20/14 Q1018
cycle: 12

Station Type Date Time Source
LIPE TAF 2019/04/25 12:21 UTC NOAA

TAF LIPE 251100Z 2512/2612 09010KT 8000 FEW010 SCT020
TEMPO 2514/2517 SHRA
BECMG 2519/2521 VRB04KT 3000 BR
TEMPO 2600/2606 0800 FG
BECMG 2606/2608 21010KT 8000
TEMPO 2610/2612 3000 TSRA

Example: see airport list